sensor_id;sensor_type;location;lat;lon;timestamp;P1;durP1;ratioP1;P2;durP2;ratioP2
47589;SDS011;33316;52.298;9.056;2023-01-28T00:00:50;1.70;;;1.10;;
47589;SDS011;33316;52.298;9.056;2023-01-28T00:03:16;2.15;;;1.30;;
47589;SDS011;33316;52.298;9.056;2023-01-28T00:05:43;2.83;;;1.25;;
47589;SDS011;33316;52.298;9.056;2023-01-28T00:08:10;1.25;;;1.15;;
47589;SDS011;33316;52.298;9.056;2023-01-28T00:10:38;1.15;;;1.05;;
47589;SDS011;33316;52.298;9.056;2023-01-28T00:13:06;0.98;;;0.88;;
47589;SDS011;33316;52.298;9.056;2023-01-28T00:15:36;1.35;;;1.05;;
47589;SDS011;33316;52.298;9.056;2023-01-28T00:18:02;1.08;;;0.85;;
47589;SDS011;33316;52.298;9.056;2023-01-28T00:20:29;2.38;;;0.90;;
47589;SDS011;33316;52.298;9.056;2023-01-28T00:22:56;1.55;;;0.90;;
47589;SDS011;33316;52.298;9.056;2023-01-28T00:25:23;2.58;;;0.90;;
47589;SDS011;33316;52.298;9.056;2023-01-28T00:27:49;1.48;;;1.10;;
47589;SDS011;33316;52.298;9.056;2023-01-28T00:30:16;2.42;;;0.95;;
47589;SDS011;33316;52.298;9.056;2023-01-28T00:32:46;2.22;;;0.95;;
47589;SDS011;33316;52.298;9.056;2023-01-28T00:35:12;1.23;;;1.02;;
47589;SDS011;33316;52.298;9.056;2023-01-28T00:37:39;1.98;;;1.00;;
47589;SDS011;33316;52.298;9.056;2023-01-28T00:40:06;2.50;;;1.15;;
47589;SDS011;33316;52.298;9.056;2023-01-28T00:42:34;0.80;;;0.77;;
47589;SDS011;33316;52.298;9.056;2023-01-28T00:45:01;1.95;;;1.00;;
47589;SDS011;33316;52.298;9.056;2023-01-28T00:47:28;1.67;;;0.80;;
47589;SDS011;33316;52.298;9.056;2023-01-28T00:49:56;2.70;;;0.95;;
47589;SDS011;33316;52.298;9.056;2023-01-28T00:52:22;1.88;;;1.13;;
47589;SDS011;33316;52.298;9.056;2023-01-28T00:54:49;1.17;;;1.08;;
47589;SDS011;33316;52.298;9.056;2023-01-28T00:57:16;3.20;;;1.02;;
47589;SDS011;33316;52.298;9.056;2023-01-28T00:59:43;2.25;;;0.98;;
47589;SDS011;33316;52.298;9.056;2023-01-28T01:02:09;1.60;;;1.08;;
47589;SDS011;33316;52.298;9.056;2023-01-28T01:04:39;1.25;;;0.95;;
47589;SDS011;33316;52.298;9.056;2023-01-28T01:07:20;1.15;;;0.82;;
47589;SDS011;33316;52.298;9.056;2023-01-28T01:09:56;2.60;;;0.88;;
47589;SDS011;33316;52.298;9.056;2023-01-28T01:12:23;2.78;;;1.10;;
47589;SDS011;33316;52.298;9.056;2023-01-28T01:14:50;2.10;;;1.10;;
47589;SDS011;33316;52.298;9.056;2023-01-28T01:17:16;1.63;;;1.08;;
47589;SDS011;33316;52.298;9.056;2023-01-28T01:19:44;1.77;;;0.90;;
47589;SDS011;33316;52.298;9.056;2023-01-28T01:22:10;2.28;;;0.98;;
47589;SDS011;33316;52.298;9.056;2023-01-28T01:24:38;2.13;;;0.70;;
47589;SDS011;33316;52.298;9.056;2023-01-28T01:27:05;1.27;;;0.75;;
47589;SDS011;33316;52.298;9.056;2023-01-28T01:29:32;2.00;;;1.02;;
47589;SDS011;33316;52.298;9.056;2023-01-28T01:31:59;1.40;;;0.98;;
47589;SDS011;33316;52.298;9.056;2023-01-28T01:34:25;2.47;;;0.80;;
47589;SDS011;33316;52.298;9.056;2023-01-28T01:36:52;2.20;;;0.90;;
47589;SDS011;33316;52.298;9.056;2023-01-28T01:39:19;1.08;;;0.98;;
47589;SDS011;33316;52.298;9.056;2023-01-28T01:41:47;1.00;;;0.90;;
47589;SDS011;33316;52.298;9.056;2023-01-28T01:47:19;1.33;;;0.80;;
47589;SDS011;33316;52.298;9.056;2023-01-28T01:49:49;1.40;;;0.80;;
47589;SDS011;33316;52.298;9.056;2023-01-28T01:52:16;2.85;;;0.80;;
47589;SDS011;33316;52.298;9.056;2023-01-28T01:54:48;1.33;;;0.70;;
47589;SDS011;33316;52.298;9.056;2023-01-28T01:57:21;2.10;;;0.90;;
47589;SDS011;33316;52.298;9.056;2023-01-28T01:59:51;1.33;;;1.05;;
47589;SDS011;33316;52.298;9.056;2023-01-28T02:02:19;1.88;;;1.20;;
47589;SDS011;33316;52.298;9.056;2023-01-28T02:04:46;1.42;;;0.80;;
47589;SDS011;33316;52.298;9.056;2023-01-28T02:07:14;2.22;;;1.10;;
47589;SDS011;33316;52.298;9.056;2023-01-28T02:09:41;2.70;;;1.00;;
47589;SDS011;33316;52.298;9.056;2023-01-28T02:12:09;1.33;;;1.08;;
47589;SDS011;33316;52.298;9.056;2023-01-28T02:14:41;1.50;;;0.90;;
47589;SDS011;33316;52.298;9.056;2023-01-28T02:17:10;0.93;;;0.82;;
47589;SDS011;33316;52.298;9.056;2023-01-28T02:19:38;1.45;;;0.75;;
47589;SDS011;33316;52.298;9.056;2023-01-28T02:22:19;0.73;;;0.70;;
47589;SDS011;33316;52.298;9.056;2023-01-28T02:25:22;1.50;;;0.60;;
47589;SDS011;33316;52.298;9.056;2023-01-28T02:28:22;1.38;;;0.70;;
47589;SDS011;33316;52.298;9.056;2023-01-28T02:30:56;0.98;;;0.70;;
47589;SDS011;33316;52.298;9.056;2023-01-28T02:35:56;0.60;;;0.60;;
47589;SDS011;33316;52.298;9.056;2023-01-28T02:38:34;0.73;;;0.73;;
47589;SDS011;33316;52.298;9.056;2023-01-28T02:41:07;0.73;;;0.73;;
47589;SDS011;33316;52.298;9.056;2023-01-28T02:43:40;1.75;;;0.90;;
47589;SDS011;33316;52.298;9.056;2023-01-28T02:46:14;1.10;;;0.75;;
47589;SDS011;33316;52.298;9.056;2023-01-28T02:49:04;2.35;;;0.80;;
47589;SDS011;33316;52.298;9.056;2023-01-28T02:51:42;0.98;;;0.75;;
47589;SDS011;33316;52.298;9.056;2023-01-28T02:54:19;1.83;;;0.75;;
47589;SDS011;33316;52.298;9.056;2023-01-28T02:56:54;1.73;;;0.93;;
47589;SDS011;33316;52.298;9.056;2023-01-28T02:59:32;0.70;;;0.70;;
47589;SDS011;33316;52.298;9.056;2023-01-28T03:02:07;1.20;;;0.77;;
47589;SDS011;33316;52.298;9.056;2023-01-28T03:04:40;1.65;;;0.70;;
47589;SDS011;33316;52.298;9.056;2023-01-28T03:07:13;1.52;;;0.93;;
47589;SDS011;33316;52.298;9.056;2023-01-28T03:09:41;1.50;;;0.90;;
47589;SDS011;33316;52.298;9.056;2023-01-28T03:12:11;1.60;;;0.60;;
47589;SDS011;33316;52.298;9.056;2023-01-28T03:15:02;1.40;;;0.77;;
47589;SDS011;33316;52.298;9.056;2023-01-28T03:17:51;0.70;;;0.70;;
47589;SDS011;33316;52.298;9.056;2023-01-28T03:20:40;1.10;;;0.77;;
47589;SDS011;33316;52.298;9.056;2023-01-28T03:23:31;1.52;;;0.77;;
47589;SDS011;33316;52.298;9.056;2023-01-28T03:26:21;1.73;;;0.70;;
47589;SDS011;33316;52.298;9.056;2023-01-28T03:29:08;0.68;;;0.60;;
47589;SDS011;33316;52.298;9.056;2023-01-28T03:31:56;1.08;;;0.90;;
47589;SDS011;33316;52.298;9.056;2023-01-28T03:34:43;2.65;;;0.85;;
47589;SDS011;33316;52.298;9.056;2023-01-28T03:37:28;1.10;;;0.80;;
47589;SDS011;33316;52.298;9.056;2023-01-28T03:39:56;0.80;;;0.77;;
47589;SDS011;33316;52.298;9.056;2023-01-28T03:42:29;1.00;;;0.90;;
47589;SDS011;33316;52.298;9.056;2023-01-28T03:44:56;1.13;;;1.02;;
47589;SDS011;33316;52.298;9.056;2023-01-28T03:47:24;1.50;;;0.80;;
47589;SDS011;33316;52.298;9.056;2023-01-28T03:49:53;1.20;;;0.82;;
47589;SDS011;33316;52.298;9.056;2023-01-28T03:52:21;1.17;;;1.00;;
47589;SDS011;33316;52.298;9.056;2023-01-28T03:54:49;0.98;;;0.88;;
47589;SDS011;33316;52.298;9.056;2023-01-28T03:57:17;1.75;;;0.95;;
47589;SDS011;33316;52.298;9.056;2023-01-28T03:59:45;1.65;;;0.90;;
47589;SDS011;33316;52.298;9.056;2023-01-28T04:02:13;1.10;;;0.82;;
47589;SDS011;33316;52.298;9.056;2023-01-28T04:04:42;1.85;;;1.00;;
47589;SDS011;33316;52.298;9.056;2023-01-28T04:07:09;1.30;;;0.70;;
47589;SDS011;33316;52.298;9.056;2023-01-28T04:09:38;1.00;;;0.90;;
47589;SDS011;33316;52.298;9.056;2023-01-28T04:12:05;1.67;;;1.10;;
47589;SDS011;33316;52.298;9.056;2023-01-28T04:14:32;1.20;;;1.00;;
47589;SDS011;33316;52.298;9.056;2023-01-28T04:16:59;1.30;;;1.00;;
47589;SDS011;33316;52.298;9.056;2023-01-28T04:19:26;2.03;;;1.00;;
47589;SDS011;33316;52.298;9.056;2023-01-28T04:21:54;1.83;;;1.00;;
47589;SDS011;33316;52.298;9.056;2023-01-28T04:24:21;1.83;;;1.35;;
47589;SDS011;33316;52.298;9.056;2023-01-28T04:26:48;2.00;;;1.55;;
47589;SDS011;33316;52.298;9.056;2023-01-28T04:29:15;1.30;;;1.10;;
47589;SDS011;33316;52.298;9.056;2023-01-28T04:31:41;1.55;;;1.20;;
47589;SDS011;33316;52.298;9.056;2023-01-28T04:34:08;1.30;;;1.10;;
47589;SDS011;33316;52.298;9.056;2023-01-28T04:36:35;1.58;;;0.90;;
47589;SDS011;33316;52.298;9.056;2023-01-28T04:39:03;1.90;;;0.88;;
47589;SDS011;33316;52.298;9.056;2023-01-28T04:41:29;1.52;;;1.00;;
47589;SDS011;33316;52.298;9.056;2023-01-28T04:43:56;1.63;;;1.05;;
47589;SDS011;33316;52.298;9.056;2023-01-28T04:46:23;1.48;;;0.98;;
47589;SDS011;33316;52.298;9.056;2023-01-28T04:48:50;2.33;;;1.00;;
47589;SDS011;33316;52.298;9.056;2023-01-28T04:51:16;1.30;;;0.80;;
47589;SDS011;33316;52.298;9.056;2023-01-28T04:53:43;1.52;;;1.05;;
47589;SDS011;33316;52.298;9.056;2023-01-28T04:56:11;1.55;;;1.10;;
47589;SDS011;33316;52.298;9.056;2023-01-28T04:58:38;1.00;;;0.85;;
47589;SDS011;33316;52.298;9.056;2023-01-28T05:01:05;1.50;;;0.90;;
47589;SDS011;33316;52.298;9.056;2023-01-28T05:03:31;1.08;;;0.80;;
47589;SDS011;33316;52.298;9.056;2023-01-28T05:05:58;1.70;;;0.90;;
47589;SDS011;33316;52.298;9.056;2023-01-28T05:08:25;1.35;;;1.10;;
47589;SDS011;33316;52.298;9.056;2023-01-28T05:10:52;1.17;;;1.08;;
47589;SDS011;33316;52.298;9.056;2023-01-28T05:13:20;2.03;;;1.08;;
47589;SDS011;33316;52.298;9.056;2023-01-28T05:15:49;1.63;;;1.17;;
47589;SDS011;33316;52.298;9.056;2023-01-28T05:18:17;1.50;;;1.00;;
47589;SDS011;33316;52.298;9.056;2023-01-28T05:20:43;1.13;;;1.02;;
47589;SDS011;33316;52.298;9.056;2023-01-28T05:23:10;1.20;;;1.10;;
47589;SDS011;33316;52.298;9.056;2023-01-28T05:25:37;4.05;;;1.00;;
47589;SDS011;33316;52.298;9.056;2023-01-28T05:28:03;1.40;;;1.00;;
47589;SDS011;33316;52.298;9.056;2023-01-28T05:30:32;1.83;;;1.05;;
47589;SDS011;33316;52.298;9.056;2023-01-28T05:32:58;1.65;;;1.10;;
47589;SDS011;33316;52.298;9.056;2023-01-28T05:35:25;1.58;;;1.00;;
47589;SDS011;33316;52.298;9.056;2023-01-28T05:37:52;1.65;;;0.88;;
47589;SDS011;33316;52.298;9.056;2023-01-28T05:40:18;1.08;;;0.80;;
47589;SDS011;33316;52.298;9.056;2023-01-28T05:42:45;2.42;;;0.80;;
47589;SDS011;33316;52.298;9.056;2023-01-28T05:45:12;1.30;;;0.77;;
47589;SDS011;33316;52.298;9.056;2023-01-28T05:47:40;1.23;;;0.88;;
47589;SDS011;33316;52.298;9.056;2023-01-28T05:50:11;1.00;;;0.82;;
47589;SDS011;33316;52.298;9.056;2023-01-28T05:52:39;1.13;;;0.80;;
47589;SDS011;33316;52.298;9.056;2023-01-28T05:55:06;1.02;;;0.88;;
47589;SDS011;33316;52.298;9.056;2023-01-28T05:57:33;3.83;;;0.90;;
47589;SDS011;33316;52.298;9.056;2023-01-28T06:00:00;0.98;;;0.77;;
47589;SDS011;33316;52.298;9.056;2023-01-28T06:02:26;1.48;;;1.08;;
47589;SDS011;33316;52.298;9.056;2023-01-28T06:04:54;1.25;;;0.95;;
47589;SDS011;33316;52.298;9.056;2023-01-28T06:07:21;2.05;;;1.30;;
47589;SDS011;33316;52.298;9.056;2023-01-28T06:09:48;3.25;;;1.23;;
47589;SDS011;33316;52.298;9.056;2023-01-28T06:12:14;1.60;;;0.95;;
47589;SDS011;33316;52.298;9.056;2023-01-28T06:14:41;1.92;;;1.00;;
47589;SDS011;33316;52.298;9.056;2023-01-28T06:17:08;1.30;;;0.88;;
47589;SDS011;33316;52.298;9.056;2023-01-28T06:19:34;1.17;;;0.95;;
47589;SDS011;33316;52.298;9.056;2023-01-28T06:22:02;1.60;;;1.23;;
47589;SDS011;33316;52.298;9.056;2023-01-28T06:24:29;2.45;;;1.00;;
47589;SDS011;33316;52.298;9.056;2023-01-28T06:26:56;1.63;;;0.90;;
47589;SDS011;33316;52.298;9.056;2023-01-28T06:29:23;1.42;;;0.85;;
47589;SDS011;33316;52.298;9.056;2023-01-28T06:31:49;1.67;;;1.05;;
47589;SDS011;33316;52.298;9.056;2023-01-28T06:34:16;1.65;;;0.82;;
47589;SDS011;33316;52.298;9.056;2023-01-28T06:36:43;0.80;;;0.80;;
47589;SDS011;33316;52.298;9.056;2023-01-28T06:39:11;1.25;;;0.90;;
47589;SDS011;33316;52.298;9.056;2023-01-28T06:41:38;0.90;;;0.77;;
47589;SDS011;33316;52.298;9.056;2023-01-28T06:44:04;1.42;;;0.95;;
47589;SDS011;33316;52.298;9.056;2023-01-28T06:46:31;0.90;;;0.65;;
47589;SDS011;33316;52.298;9.056;2023-01-28T06:48:58;1.27;;;0.68;;
47589;SDS011;33316;52.298;9.056;2023-01-28T06:51:24;1.23;;;0.93;;
47589;SDS011;33316;52.298;9.056;2023-01-28T06:53:51;0.80;;;0.70;;
47589;SDS011;33316;52.298;9.056;2023-01-28T06:56:19;1.45;;;0.80;;
47589;SDS011;33316;52.298;9.056;2023-01-28T06:58:46;1.80;;;1.10;;
47589;SDS011;33316;52.298;9.056;2023-01-28T07:01:13;1.27;;;0.90;;
47589;SDS011;33316;52.298;9.056;2023-01-28T07:03:39;1.85;;;0.90;;
47589;SDS011;33316;52.298;9.056;2023-01-28T07:06:06;2.35;;;1.10;;
47589;SDS011;33316;52.298;9.056;2023-01-28T07:08:33;1.65;;;1.10;;
47589;SDS011;33316;52.298;9.056;2023-01-28T07:11:01;1.73;;;0.80;;
47589;SDS011;33316;52.298;9.056;2023-01-28T07:13:29;1.30;;;0.98;;
47589;SDS011;33316;52.298;9.056;2023-01-28T07:15:56;1.30;;;1.02;;
47589;SDS011;33316;52.298;9.056;2023-01-28T07:18:23;2.15;;;1.38;;
47589;SDS011;33316;52.298;9.056;2023-01-28T07:20:50;2.13;;;1.20;;
47589;SDS011;33316;52.298;9.056;2023-01-28T07:23:17;1.77;;;0.95;;
47589;SDS011;33316;52.298;9.056;2023-01-28T07:25:43;2.20;;;1.10;;
47589;SDS011;33316;52.298;9.056;2023-01-28T07:28:10;0.80;;;0.80;;
47589;SDS011;33316;52.298;9.056;2023-01-28T07:30:38;1.10;;;1.00;;
47589;SDS011;33316;52.298;9.056;2023-01-28T07:33:05;1.90;;;1.10;;
47589;SDS011;33316;52.298;9.056;2023-01-28T07:35:31;1.55;;;1.10;;
47589;SDS011;33316;52.298;9.056;2023-01-28T07:37:59;2.17;;;1.27;;
47589;SDS011;33316;52.298;9.056;2023-01-28T07:40:26;2.53;;;1.30;;
47589;SDS011;33316;52.298;9.056;2023-01-28T07:42:54;1.40;;;0.90;;
47589;SDS011;33316;52.298;9.056;2023-01-28T07:45:21;2.08;;;1.13;;
47589;SDS011;33316;52.298;9.056;2023-01-28T07:47:53;1.52;;;1.00;;
47589;SDS011;33316;52.298;9.056;2023-01-28T07:50:21;2.80;;;1.20;;
47589;SDS011;33316;52.298;9.056;2023-01-28T07:52:47;1.80;;;1.15;;
47589;SDS011;33316;52.298;9.056;2023-01-28T07:55:14;1.10;;;0.95;;
47589;SDS011;33316;52.298;9.056;2023-01-28T07:57:48;1.33;;;1.02;;
47589;SDS011;33316;52.298;9.056;2023-01-28T08:00:16;1.38;;;1.08;;
47589;SDS011;33316;52.298;9.056;2023-01-28T08:02:44;2.20;;;1.10;;
47589;SDS011;33316;52.298;9.056;2023-01-28T08:05:13;1.45;;;1.10;;
47589;SDS011;33316;52.298;9.056;2023-01-28T08:07:40;1.00;;;0.90;;
47589;SDS011;33316;52.298;9.056;2023-01-28T08:10:08;1.73;;;1.00;;
47589;SDS011;33316;52.298;9.056;2023-01-28T08:12:35;2.03;;;1.00;;
47589;SDS011;33316;52.298;9.056;2023-01-28T08:15:02;1.75;;;1.65;;
47589;SDS011;33316;52.298;9.056;2023-01-28T08:17:30;2.25;;;1.83;;
47589;SDS011;33316;52.298;9.056;2023-01-28T08:19:56;1.95;;;1.52;;
47589;SDS011;33316;52.298;9.056;2023-01-28T08:22:25;1.65;;;1.45;;
47589;SDS011;33316;52.298;9.056;2023-01-28T08:24:52;1.40;;;1.30;;
47589;SDS011;33316;52.298;9.056;2023-01-28T08:27:19;3.78;;;1.80;;
47589;SDS011;33316;52.298;9.056;2023-01-28T08:29:45;2.75;;;1.50;;
47589;SDS011;33316;52.298;9.056;2023-01-28T08:32:12;2.15;;;1.50;;
47589;SDS011;33316;52.298;9.056;2023-01-28T08:34:39;3.25;;;1.70;;
47589;SDS011;33316;52.298;9.056;2023-01-28T08:37:05;2.17;;;1.60;;
47589;SDS011;33316;52.298;9.056;2023-01-28T08:39:33;2.05;;;1.60;;
47589;SDS011;33316;52.298;9.056;2023-01-28T08:42:00;2.35;;;1.50;;
47589;SDS011;33316;52.298;9.056;2023-01-28T08:44:27;2.00;;;1.55;;
47589;SDS011;33316;52.298;9.056;2023-01-28T08:46:53;2.00;;;1.63;;
47589;SDS011;33316;52.298;9.056;2023-01-28T08:49:20;1.77;;;1.38;;
47589;SDS011;33316;52.298;9.056;2023-01-28T08:51:47;3.10;;;1.75;;
47589;SDS011;33316;52.298;9.056;2023-01-28T08:54:14;2.38;;;2.03;;
47589;SDS011;33316;52.298;9.056;2023-01-28T08:56:42;6.97;;;4.07;;
47589;SDS011;33316;52.298;9.056;2023-01-28T08:59:09;8.80;;;4.82;;
47589;SDS011;33316;52.298;9.056;2023-01-28T09:01:36;8.02;;;4.65;;
47589;SDS011;33316;52.298;9.056;2023-01-28T09:04:02;9.65;;;4.72;;
47589;SDS011;33316;52.298;9.056;2023-01-28T09:06:29;7.68;;;3.88;;
47589;SDS011;33316;52.298;9.056;2023-01-28T09:08:56;16.08;;;6.18;;
47589;SDS011;33316;52.298;9.056;2023-01-28T09:11:23;18.63;;;7.80;;
47589;SDS011;33316;52.298;9.056;2023-01-28T09:13:52;22.15;;;8.50;;
47589;SDS011;33316;52.298;9.056;2023-01-28T09:16:18;27.55;;;9.57;;
47589;SDS011;33316;52.298;9.056;2023-01-28T09:18:45;20.40;;;7.00;;
47589;SDS011;33316;52.298;9.056;2023-01-28T09:21:12;14.05;;;5.97;;
47589;SDS011;33316;52.298;9.056;2023-01-28T09:23:39;16.38;;;6.45;;
47589;SDS011;33316;52.298;9.056;2023-01-28T09:26:06;16.27;;;6.75;;
47589;SDS011;33316;52.298;9.056;2023-01-28T09:28:34;18.63;;;5.65;;
47589;SDS011;33316;52.298;9.056;2023-01-28T09:31:04;17.65;;;4.40;;
47589;SDS011;33316;52.298;9.056;2023-01-28T09:33:31;10.15;;;3.40;;
47589;SDS011;33316;52.298;9.056;2023-01-28T09:35:58;5.82;;;2.85;;
47589;SDS011;33316;52.298;9.056;2023-01-28T09:38:28;4.32;;;2.33;;
47589;SDS011;33316;52.298;9.056;2023-01-28T09:40:55;10.02;;;4.22;;
47589;SDS011;33316;52.298;9.056;2023-01-28T09:43:30;8.75;;;4.07;;
47589;SDS011;33316;52.298;9.056;2023-01-28T09:46:14;7.75;;;3.10;;
47589;SDS011;33316;52.298;9.056;2023-01-28T09:48:43;10.07;;;4.20;;
47589;SDS011;33316;52.298;9.056;2023-01-28T09:51:18;35.65;;;11.05;;
47589;SDS011;33316;52.298;9.056;2023-01-28T09:53:54;35.97;;;10.63;;
47589;SDS011;33316;52.298;9.056;2023-01-28T09:56:30;28.52;;;8.63;;
47589;SDS011;33316;52.298;9.056;2023-01-28T09:59:03;23.08;;;7.18;;
47589;SDS011;33316;52.298;9.056;2023-01-28T10:01:44;31.23;;;8.15;;
47589;SDS011;33316;52.298;9.056;2023-01-28T10:04:18;23.55;;;6.97;;
47589;SDS011;33316;52.298;9.056;2023-01-28T10:06:54;33.70;;;9.93;;
47589;SDS011;33316;52.298;9.056;2023-01-28T10:09:30;25.88;;;8.27;;
47589;SDS011;33316;52.298;9.056;2023-01-28T10:12:12;12.93;;;5.03;;
47589;SDS011;33316;52.298;9.056;2023-01-28T10:14:57;7.28;;;3.50;;
47589;SDS011;33316;52.298;9.056;2023-01-28T10:17:46;6.68;;;2.72;;
47589;SDS011;33316;52.298;9.056;2023-01-28T10:20:23;3.40;;;2.10;;
47589;SDS011;33316;52.298;9.056;2023-01-28T10:22:57;3.47;;;1.90;;
47589;SDS011;33316;52.298;9.056;2023-01-28T10:25:30;2.50;;;1.70;;
47589;SDS011;33316;52.298;9.056;2023-01-28T10:27:58;1.83;;;1.30;;
47589;SDS011;33316;52.298;9.056;2023-01-28T10:30:27;1.65;;;1.27;;
47589;SDS011;33316;52.298;9.056;2023-01-28T10:33:00;2.28;;;1.40;;
47589;SDS011;33316;52.298;9.056;2023-01-28T10:35:32;2.55;;;1.58;;
47589;SDS011;33316;52.298;9.056;2023-01-28T10:38:03;1.88;;;1.50;;
47589;SDS011;33316;52.298;9.056;2023-01-28T10:40:33;1.85;;;1.20;;
47589;SDS011;33316;52.298;9.056;2023-01-28T10:43:00;2.08;;;1.45;;
47589;SDS011;33316;52.298;9.056;2023-01-28T10:45:28;5.97;;;3.38;;
47589;SDS011;33316;52.298;9.056;2023-01-28T10:47:59;9.68;;;4.90;;
47589;SDS011;33316;52.298;9.056;2023-01-28T10:50:29;6.95;;;4.63;;
47589;SDS011;33316;52.298;9.056;2023-01-28T10:52:57;6.35;;;4.10;;
47589;SDS011;33316;52.298;9.056;2023-01-28T10:55:25;6.07;;;3.40;;
47589;SDS011;33316;52.298;9.056;2023-01-28T10:57:55;4.27;;;3.17;;
47589;SDS011;33316;52.298;9.056;2023-01-28T11:00:22;3.75;;;2.40;;
47589;SDS011;33316;52.298;9.056;2023-01-28T11:02:51;2.95;;;2.45;;
47589;SDS011;33316;52.298;9.056;2023-01-28T11:05:22;4.75;;;2.90;;
47589;SDS011;33316;52.298;9.056;2023-01-28T11:08:01;3.92;;;2.53;;
47589;SDS011;33316;52.298;9.056;2023-01-28T11:10:30;3.25;;;2.50;;
47589;SDS011;33316;52.298;9.056;2023-01-28T11:13:00;3.13;;;2.20;;
47589;SDS011;33316;52.298;9.056;2023-01-28T11:15:28;3.17;;;2.33;;
47589;SDS011;33316;52.298;9.056;2023-01-28T11:17:56;3.55;;;2.10;;
47589;SDS011;33316;52.298;9.056;2023-01-28T11:20:28;2.88;;;2.38;;
47589;SDS011;33316;52.298;9.056;2023-01-28T11:23:00;2.88;;;1.83;;
47589;SDS011;33316;52.298;9.056;2023-01-28T11:25:28;2.88;;;2.05;;
47589;SDS011;33316;52.298;9.056;2023-01-28T11:27:56;3.38;;;2.38;;
47589;SDS011;33316;52.298;9.056;2023-01-28T11:30:25;2.10;;;1.90;;
47589;SDS011;33316;52.298;9.056;2023-01-28T11:32:54;2.63;;;2.20;;
47589;SDS011;33316;52.298;9.056;2023-01-28T11:35:29;3.55;;;2.65;;
47589;SDS011;33316;52.298;9.056;2023-01-28T11:37:56;3.90;;;2.30;;
47589;SDS011;33316;52.298;9.056;2023-01-28T11:40:23;2.42;;;2.10;;
47589;SDS011;33316;52.298;9.056;2023-01-28T11:42:50;3.03;;;2.10;;
47589;SDS011;33316;52.298;9.056;2023-01-28T11:45:22;2.33;;;1.83;;
47589;SDS011;33316;52.298;9.056;2023-01-28T11:47:56;2.50;;;1.88;;
47589;SDS011;33316;52.298;9.056;2023-01-28T11:50:41;3.35;;;2.17;;
47589;SDS011;33316;52.298;9.056;2023-01-28T11:53:16;1.90;;;1.80;;
47589;SDS011;33316;52.298;9.056;2023-01-28T11:56:08;1.85;;;1.52;;
47589;SDS011;33316;52.298;9.056;2023-01-28T11:58:49;2.42;;;1.90;;
47589;SDS011;33316;52.298;9.056;2023-01-28T12:01:23;3.70;;;2.33;;
47589;SDS011;33316;52.298;9.056;2023-01-28T12:04:06;2.50;;;2.20;;
47589;SDS011;33316;52.298;9.056;2023-01-28T12:09:39;2.67;;;2.22;;
47589;SDS011;33316;52.298;9.056;2023-01-28T12:12:18;3.03;;;2.28;;
47589;SDS011;33316;52.298;9.056;2023-01-28T12:14:59;2.05;;;1.80;;
47589;SDS011;33316;52.298;9.056;2023-01-28T12:17:51;4.32;;;2.20;;
47589;SDS011;33316;52.298;9.056;2023-01-28T12:20:30;2.33;;;1.83;;
47589;SDS011;33316;52.298;9.056;2023-01-28T12:23:04;2.10;;;1.77;;
47589;SDS011;33316;52.298;9.056;2023-01-28T12:25:45;3.88;;;2.15;;
47589;SDS011;33316;52.298;9.056;2023-01-28T12:28:24;3.95;;;2.03;;
47589;SDS011;33316;52.298;9.056;2023-01-28T12:31:13;4.15;;;1.77;;
47589;SDS011;33316;52.298;9.056;2023-01-28T12:34:08;2.25;;;2.00;;
47589;SDS011;33316;52.298;9.056;2023-01-28T12:36:51;2.72;;;1.90;;
47589;SDS011;33316;52.298;9.056;2023-01-28T12:39:27;2.78;;;2.10;;
47589;SDS011;33316;52.298;9.056;2023-01-28T12:42:02;3.00;;;2.20;;
47589;SDS011;33316;52.298;9.056;2023-01-28T12:44:35;3.10;;;2.80;;
47589;SDS011;33316;52.298;9.056;2023-01-28T12:47:08;3.17;;;2.50;;
47589;SDS011;33316;52.298;9.056;2023-01-28T12:52:08;4.53;;;2.28;;
47589;SDS011;33316;52.298;9.056;2023-01-28T12:57:12;2.08;;;1.63;;
47589;SDS011;33316;52.298;9.056;2023-01-28T12:59:52;3.53;;;2.38;;
47589;SDS011;33316;52.298;9.056;2023-01-28T13:02:29;2.63;;;2.38;;
47589;SDS011;33316;52.298;9.056;2023-01-28T13:05:02;3.72;;;2.15;;
47589;SDS011;33316;52.298;9.056;2023-01-28T13:07:34;2.72;;;2.30;;
47589;SDS011;33316;52.298;9.056;2023-01-28T13:12:37;2.60;;;2.00;;
47589;SDS011;33316;52.298;9.056;2023-01-28T13:15:09;3.65;;;1.98;;
47589;SDS011;33316;52.298;9.056;2023-01-28T13:17:37;2.40;;;2.00;;
47589;SDS011;33316;52.298;9.056;2023-01-28T13:20:12;2.92;;;1.95;;
47589;SDS011;33316;52.298;9.056;2023-01-28T13:22:42;1.92;;;1.75;;
47589;SDS011;33316;52.298;9.056;2023-01-28T13:25:20;2.58;;;2.17;;
47589;SDS011;33316;52.298;9.056;2023-01-28T13:27:55;4.13;;;2.58;;
47589;SDS011;33316;52.298;9.056;2023-01-28T13:30:25;4.28;;;2.63;;
47589;SDS011;33316;52.298;9.056;2023-01-28T13:32:54;2.83;;;2.22;;
47589;SDS011;33316;52.298;9.056;2023-01-28T13:35:26;3.13;;;2.53;;
47589;SDS011;33316;52.298;9.056;2023-01-28T13:37:56;3.35;;;2.50;;
47589;SDS011;33316;52.298;9.056;2023-01-28T13:40:25;3.92;;;2.38;;
47589;SDS011;33316;52.298;9.056;2023-01-28T13:42:58;5.13;;;2.50;;
47589;SDS011;33316;52.298;9.056;2023-01-28T13:45:26;5.03;;;2.35;;
47589;SDS011;33316;52.298;9.056;2023-01-28T13:47:56;3.53;;;2.33;;
47589;SDS011;33316;52.298;9.056;2023-01-28T13:50:34;3.30;;;2.55;;
47589;SDS011;33316;52.298;9.056;2023-01-28T13:53:06;3.88;;;3.08;;
47589;SDS011;33316;52.298;9.056;2023-01-28T13:55:46;2.75;;;2.28;;
47589;SDS011;33316;52.298;9.056;2023-01-28T13:58:35;2.97;;;2.42;;
47589;SDS011;33316;52.298;9.056;2023-01-28T14:01:23;2.20;;;2.00;;
47589;SDS011;33316;52.298;9.056;2023-01-28T14:04:20;3.10;;;2.58;;
47589;SDS011;33316;52.298;9.056;2023-01-28T14:07:24;4.03;;;3.03;;
47589;SDS011;33316;52.298;9.056;2023-01-28T14:16:22;4.20;;;2.47;;
47589;SDS011;33316;52.298;9.056;2023-01-28T14:18:55;3.25;;;2.50;;
47589;SDS011;33316;52.298;9.056;2023-01-28T14:21:25;2.95;;;2.22;;
47589;SDS011;33316;52.298;9.056;2023-01-28T14:23:54;3.15;;;2.42;;
47589;SDS011;33316;52.298;9.056;2023-01-28T14:26:25;2.67;;;2.47;;
47589;SDS011;33316;52.298;9.056;2023-01-28T14:31:55;2.58;;;2.25;;
47589;SDS011;33316;52.298;9.056;2023-01-28T14:34:23;3.92;;;2.58;;
47589;SDS011;33316;52.298;9.056;2023-01-28T14:36:53;4.07;;;3.40;;
47589;SDS011;33316;52.298;9.056;2023-01-28T14:39:24;3.40;;;3.00;;
47589;SDS011;33316;52.298;9.056;2023-01-28T14:41:53;3.83;;;2.55;;
47589;SDS011;33316;52.298;9.056;2023-01-28T14:44:27;5.47;;;3.10;;
47589;SDS011;33316;52.298;9.056;2023-01-28T14:47:12;3.83;;;2.78;;
47589;SDS011;33316;52.298;9.056;2023-01-28T14:50:06;4.60;;;3.25;;
47589;SDS011;33316;52.298;9.056;2023-01-28T14:55:25;5.05;;;3.05;;
47589;SDS011;33316;52.298;9.056;2023-01-28T14:57:59;5.07;;;3.20;;
47589;SDS011;33316;52.298;9.056;2023-01-28T15:00:30;4.63;;;3.25;;
47589;SDS011;33316;52.298;9.056;2023-01-28T15:03:06;4.38;;;3.08;;
47589;SDS011;33316;52.298;9.056;2023-01-28T15:05:34;5.93;;;3.33;;
47589;SDS011;33316;52.298;9.056;2023-01-28T15:08:00;4.40;;;3.17;;
47589;SDS011;33316;52.298;9.056;2023-01-28T15:10:28;5.28;;;3.53;;
47589;SDS011;33316;52.298;9.056;2023-01-28T15:13:03;4.60;;;3.10;;
47589;SDS011;33316;52.298;9.056;2023-01-28T15:15:35;7.72;;;3.50;;
47589;SDS011;33316;52.298;9.056;2023-01-28T15:18:05;7.85;;;4.78;;
47589;SDS011;33316;52.298;9.056;2023-01-28T15:20:42;4.70;;;3.60;;
47589;SDS011;33316;52.298;9.056;2023-01-28T15:23:11;4.63;;;3.40;;
47589;SDS011;33316;52.298;9.056;2023-01-28T15:25:40;3.50;;;2.90;;
47589;SDS011;33316;52.298;9.056;2023-01-28T15:28:08;3.58;;;2.63;;
47589;SDS011;33316;52.298;9.056;2023-01-28T15:30:44;4.32;;;3.38;;
47589;SDS011;33316;52.298;9.056;2023-01-28T15:33:13;6.25;;;3.42;;
47589;SDS011;33316;52.298;9.056;2023-01-28T15:35:45;3.88;;;3.30;;
47589;SDS011;33316;52.298;9.056;2023-01-28T15:38:12;3.58;;;3.00;;